.
WxDataArchive / Data Records for 2008-10-12
2008-10-11 October 2008 2008-10-13

Data Records for Sunday, 12 October 2008

Time	Temp	Chill	HIndex	Humid	Dewpt	 Wind 	HiWind	WindDir	Rain 	Barom 
-----	----	-----	------	-----	-----	------	------	-------	-----	----- 
00:00	54.8	54.8	54.8	86	50.7	0	1	90	0.00	30.271 
00:05	55.0	55.0	55.0	85	50.6	0	1	90	0.00	30.272 
00:10	55.1	55.1	55.1	85	50.7	0	1	90	0.00	30.272 
00:15	55.3	55.3	55.3	84	50.5	0	0	---	0.00	30.269 
00:20	55.1	55.1	55.1	84	50.4	0	0	---	0.00	30.268 
00:25	55.0	55.0	55.0	84	50.3	0	0	---	0.00	30.266 
00:30	54.7	54.7	54.7	85	50.3	0	0	---	0.00	30.265 
00:35	54.4	54.4	54.4	85	50.0	0	0	---	0.00	30.263 
00:40	54.1	54.1	54.1	85	49.7	0	0	---	0.00	30.261 
00:45	53.6	53.6	53.6	86	49.5	0	0	---	0.00	30.260 
00:50	53.3	53.3	53.3	86	49.2	0	0	---	0.00	30.260 
00:55	53.1	53.1	53.1	87	49.3	0	0	---	0.00	30.260 
01:00	52.8	52.8	52.8	87	49.0	0	0	---	0.00	30.259 
01:05	52.6	52.6	52.6	88	49.1	0	0	---	0.00	30.257 
01:10	52.3	52.3	52.3	88	48.9	0	0	---	0.00	30.258 
01:15	52.2	52.2	52.2	89	49.1	0	0	---	0.00	30.259 
01:20	52.0	52.0	52.0	90	49.2	0	0	---	0.00	30.259 
01:25	51.9	51.9	51.9	90	49.1	0	0	---	0.00	30.260 
01:30	51.7	51.7	51.7	91	49.2	0	0	---	0.00	30.261 
01:35	51.6	51.6	51.6	91	49.1	0	0	---	0.00	30.262 
01:40	51.3	51.3	51.3	91	48.8	0	0	---	0.00	30.263 
01:45	51.1	51.1	51.1	91	48.6	0	0	---	0.00	30.266 
01:50	50.8	50.8	50.8	91	48.3	0	0	---	0.00	30.267 
01:55	50.7	50.7	50.7	91	48.2	0	0	---	0.00	30.268 
02:00	50.5	50.5	50.5	92	48.3	0	0	---	0.00	30.268 
02:05	50.4	50.4	50.4	92	48.2	0	0	---	0.00	30.271 
02:10	50.2	50.2	50.2	92	48.0	0	0	---	0.00	30.270 
02:15	49.9	49.9	49.9	92	47.7	0	0	---	0.00	30.268 
02:20	49.8	49.8	49.8	92	47.6	0	0	---	0.00	30.268 
02:25	49.6	49.6	49.6	92	47.4	0	0	---	0.00	30.267 
02:30	49.5	49.5	49.5	92	47.3	0	0	---	0.00	30.269 
02:35	49.4	49.4	49.4	93	47.5	0	0	---	0.00	30.270 
02:40	49.4	49.4	49.4	93	47.5	0	0	---	0.00	30.271 
02:45	49.2	49.2	49.2	93	47.3	0	0	---	0.00	30.271 
02:50	49.1	49.1	49.1	93	47.2	0	0	---	0.00	30.269 
02:55	48.9	48.9	48.9	93	47.0	0	0	---	0.00	30.269 
03:00	48.8	48.8	48.8	93	46.9	0	0	---	0.00	30.270 
03:05	48.6	48.6	48.6	93	46.7	0	0	---	0.00	30.272 
03:10	48.5	48.5	48.5	93	46.6	0	0	---	0.00	30.270 
03:15	48.3	48.3	48.3	94	46.7	0	0	---	0.00	30.268 
03:20	48.2	48.2	48.2	94	46.6	0	0	---	0.00	30.268 
03:25	48.0	48.0	48.0	94	46.4	0	0	---	0.00	30.269 
03:30	48.0	48.0	48.0	94	46.4	0	0	---	0.00	30.268 
03:35	47.9	47.9	47.9	94	46.3	0	0	---	0.00	30.270 
03:40	47.9	47.9	47.9	94	46.3	0	0	---	0.00	30.270 
03:45	47.7	47.7	47.7	94	46.1	0	0	---	0.00	30.272 
03:50	47.9	47.9	47.9	94	46.3	0	0	---	0.00	30.275 
03:55	48.0	48.0	48.0	95	46.6	0	0	---	0.00	30.277 
04:00	48.0	48.0	48.0	95	46.6	0	0	---	0.00	30.279 
04:05	47.9	47.9	47.9	95	46.5	0	0	---	0.00	30.281 
04:10	47.9	47.9	47.9	95	46.5	0	0	---	0.00	30.281 
04:15	47.7	47.7	47.7	95	46.3	0	0	---	0.00	30.282 
04:20	47.7	47.7	47.7	95	46.3	0	0	---	0.00	30.284 
04:25	47.7	47.7	47.7	95	46.3	0	0	---	0.00	30.285 
04:30	47.6	47.6	47.6	95	46.2	0	0	---	0.00	30.288 
04:35	47.6	47.6	47.6	95	46.2	0	0	---	0.00	30.290 
04:40	47.4	47.4	47.4	95	46.0	0	0	---	0.00	30.291 
04:45	47.4	47.4	47.4	95	46.0	0	0	---	0.00	30.286 
04:50	47.3	47.3	47.3	95	45.9	0	0	---	0.00	30.286 
04:55	47.1	47.1	47.1	95	45.7	0	0	---	0.00	30.290 
05:00	47.0	47.0	47.0	95	45.6	0	0	---	0.00	30.292 
05:05	47.0	47.0	47.0	95	45.6	0	0	---	0.00	30.299 
05:10	47.0	47.0	47.0	95	45.6	0	0	---	0.00	30.299 
05:15	47.0	47.0	47.0	95	45.6	0	0	---	0.00	30.299 
05:20	46.8	46.8	46.8	95	45.4	0	0	---	0.00	30.300 
05:25	46.7	46.7	46.7	95	45.3	0	0	---	0.00	30.299 
05:30	46.7	46.7	46.7	95	45.3	0	0	---	0.00	30.301 
05:35	47.0	47.0	47.0	96	45.9	0	0	---	0.00	30.301 
05:40	47.1	47.1	47.1	96	46.0	0	0	---	0.00	30.302 
05:45	47.3	47.3	47.3	96	46.2	0	0	---	0.00	30.303 
05:50	47.3	47.3	47.3	96	46.2	0	0	---	0.00	30.305 
05:55	47.4	47.4	47.4	96	46.3	0	0	---	0.00	30.307 
06:00	47.4	47.4	47.4	96	46.3	0	0	---	0.00	30.306 
06:05	47.4	47.4	47.4	96	46.3	0	0	---	0.00	30.318 
06:10	47.6	47.6	47.6	96	46.5	0	0	---	0.00	30.320 
06:15	47.6	47.6	47.6	96	46.5	0	0	---	0.00	30.322 
06:20	47.6	47.6	47.6	96	46.5	0	0	---	0.00	30.324 
06:25	47.6	47.6	47.6	96	46.5	0	0	---	0.00	30.323 
06:30	47.7	47.7	47.7	96	46.6	0	0	---	0.00	30.324 
06:35	47.7	47.7	47.7	96	46.6	0	0	---	0.00	30.325 
06:40	47.7	47.7	47.7	96	46.6	0	0	---	0.00	30.326 
06:45	47.7	47.7	47.7	96	46.6	0	0	---	0.00	30.329 
06:50	47.7	47.7	47.7	96	46.6	0	0	---	0.00	30.331 
06:55	47.7	47.7	47.7	96	46.6	0	0	---	0.00	30.336 
07:00	47.7	47.7	47.7	96	46.6	0	0	---	0.00	30.337 
07:05	47.7	47.7	47.7	96	46.6	0	0	---	0.00	30.341 
07:10	47.7	47.7	47.7	96	46.6	0	0	---	0.00	30.342 
07:15	47.7	47.7	47.7	96	46.6	0	0	---	0.00	30.344 
07:20	47.9	47.9	47.9	96	46.8	0	0	---	0.00	30.347 
07:25	48.0	48.0	48.0	96	46.9	0	0	---	0.00	30.351 
07:30	48.0	48.0	48.0	96	46.9	0	0	---	0.00	30.354 
07:35	48.2	48.2	48.2	96	47.1	0	0	---	0.00	30.357 
07:40	48.5	48.5	48.5	96	47.4	0	0	---	0.00	30.357 
07:45	48.9	48.9	48.9	97	48.1	0	1	90	0.00	30.358 
07:50	49.8	49.8	49.8	97	49.0	0	1	90	0.00	30.358 
07:55	50.5	50.5	50.5	97	49.7	0	1	90	0.00	30.359 
08:00	51.3	51.3	51.3	97	50.5	0	1	90	0.00	30.360 
08:05	51.9	51.9	51.9	97	51.1	0	1	90	0.00	30.361 
08:10	52.3	52.3	52.3	97	51.5	0	1	90	0.00	30.362 
08:15	52.8	52.8	52.8	97	52.0	0	2	90	0.00	30.358 
08:20	53.3	53.3	53.3	97	52.5	1	3	90	0.00	30.357 
08:25	53.8	53.8	53.8	96	52.7	1	3	90	0.00	30.358 
08:30	54.1	54.1	54.1	96	53.0	1	3	90	0.00	30.361 
08:35	54.5	54.5	54.5	94	52.8	1	3	90	0.00	30.363 
08:40	54.8	54.8	54.8	92	52.5	1	2	90	0.00	30.361 
08:45	55.3	55.3	55.3	92	53.0	0	2	90	0.00	30.363 
08:50	55.6	55.6	55.6	90	52.7	1	2	90	0.00	30.363 
08:55	56.2	56.2	56.2	89	53.0	0	2	90	0.00	30.364 
09:00	56.7	56.7	56.7	88	53.2	0	2	90	0.00	30.362 
09:05	57.3	57.3	57.3	86	53.1	1	2	90	0.00	30.366 
09:10	58.0	58.0	58.0	84	53.2	1	3	90	0.00	30.365 
09:15	58.4	58.4	58.4	82	52.9	1	2	90	0.00	30.365 
09:20	59.2	59.2	59.2	81	53.4	1	3	90	0.00	30.364 
09:25	60.2	60.2	60.2	78	53.3	1	3	90	0.00	30.365 
09:30	61.2	61.2	61.2	75	53.2	1	4	90	0.00	30.363 
09:35	62.3	62.3	62.3	73	53.5	0	2	90	0.00	30.363 
09:40	63.2	63.2	63.2	71	53.6	1	3	90	0.00	30.358 
09:45	64.2	64.2	64.2	67	53.0	0	3	112	0.00	30.357 
09:50	65.0	65.0	65.0	66	53.4	1	4	90	0.00	30.356 
09:55	65.8	65.8	65.8	64	53.3	0	2	90	0.00	30.357 
10:00	66.9	66.9	66.9	60	52.6	1	2	90	0.00	30.352 
10:05	67.6	67.6	67.6	60	53.2	0	3	90	0.00	30.353 
10:10	67.8	67.8	67.8	62	54.3	1	3	90	0.00	30.350 
10:15	68.1	68.1	68.1	59	53.2	0	2	90	0.00	30.350 
10:20	68.6	68.6	68.6	58	53.2	1	4	90	0.00	30.352 
10:25	68.9	68.9	68.9	58	53.5	1	4	90	0.00	30.350 
10:30	69.6	69.6	69.6	57	53.7	0	2	90	0.00	30.346 
10:35	70.1	70.1	70.1	55	53.2	1	4	90	0.00	30.346 
10:40	70.6	70.6	70.6	55	53.6	0	3	90	0.00	30.345 
10:45	71.3	71.3	71.3	53	53.3	1	3	90	0.00	30.342 
10:50	71.8	71.8	71.8	53	53.7	1	3	90	0.00	30.342 
10:55	72.3	72.3	72.3	51	53.1	0	2	90	0.00	30.341 
11:00	72.8	72.8	72.8	51	53.6	1	3	90	0.00	30.337 
11:05	73.5	73.5	73.5	49	53.2	0	3	90	0.00	30.336 
11:10	74.0	74.0	74.0	52	55.2	1	3	90	0.00	30.334 
11:15	74.4	74.4	74.4	48	53.4	0	2	90	0.00	30.332 
11:20	74.9	74.9	74.9	49	54.4	0	2	90	0.00	30.331 
11:25	75.3	75.3	77.7	48	54.2	0	1	90	0.00	30.331 
11:30	75.8	75.8	77.9	47	54.1	0	2	90	0.00	30.330 
11:35	76.1	76.1	78.0	46	53.8	0	3	90	0.00	30.330 
11:40	76.5	76.5	78.3	47	54.7	1	2	90	0.00	30.328 
11:45	76.8	76.8	78.4	48	55.6	0	2	90	0.00	30.328 
11:50	77.0	77.0	78.5	47	55.2	0	1	90	0.00	30.328 
11:55	77.6	77.6	78.7	43	53.3	0	1	90	0.00	30.326 
12:00	77.7	77.7	78.8	44	54.0	0	2	90	0.00	30.325 
12:05	78.3	78.3	79.2	46	55.8	0	2	90	0.00	30.326 
12:10	78.6	78.6	79.4	45	55.5	0	2	90	0.00	30.323 
12:15	78.8	78.8	79.4	44	55.0	0	2	90	0.00	30.322 
12:20	79.0	79.0	79.4	42	53.9	0	1	90	0.00	30.322 
12:25	79.2	79.2	79.7	44	55.4	0	1	90	0.00	30.321 
12:30	79.4	79.4	79.6	41	53.6	0	2	90	0.00	30.317 
12:35	79.8	79.8	79.6	38	51.9	0	1	90	0.00	30.316 
12:40	79.9	79.9	79.9	41	54.1	0	2	90	0.00	30.312 
12:45	79.9	79.9	79.7	38	52.0	1	3	90	0.00	30.309 
12:50	79.9	79.9	79.9	41	54.1	0	1	90	0.00	30.308 
12:55	80.3	80.3	80.1	39	53.1	0	2	90	0.00	30.306 
13:00	80.7	80.7	80.4	40	54.1	0	2	90	0.00	30.303 
13:05	81.1	81.1	80.3	35	50.8	0	3	90	0.00	30.304 
13:10	81.2	81.2	80.3	35	50.9	1	4	68	0.00	30.298 
13:15	81.6	81.6	80.8	37	52.8	0	1	68	0.00	30.297 
13:20	81.8	81.8	80.7	34	50.7	0	2	68	0.00	30.295 
13:25	82.0	82.0	80.7	33	50.0	0	2	68	0.00	30.293 
13:30	82.2	82.2	80.8	32	49.4	1	4	90	0.00	30.293 
13:35	82.4	82.4	80.9	31	48.7	0	4	90	0.00	30.294 
13:40	82.6	82.6	81.1	32	49.7	1	4	90	0.00	30.293 
13:45	82.8	82.8	81.2	31	49.0	0	3	135	0.00	30.291 
13:50	82.8	82.8	81.6	35	52.3	0	2	202	0.00	30.290 
13:55	83.0	83.0	81.0	27	45.5	1	4	112	0.00	30.290 
14:00	83.2	83.2	81.2	28	46.7	1	4	112	0.00	30.288 
14:05	83.4	83.4	81.4	28	46.8	0	4	112	0.00	30.290 
14:10	83.4	83.4	81.3	27	45.9	0	2	112	0.00	30.289 
14:15	83.6	83.6	81.5	28	47.0	1	5	112	0.00	30.287 
14:20	83.6	83.6	81.5	28	47.0	1	5	112	0.00	30.285 
14:25	83.6	83.6	81.5	28	47.0	1	4	112	0.00	30.282 
14:30	83.8	83.8	81.7	28	47.2	1	5	270	0.00	30.285 
14:35	83.8	83.8	81.7	28	47.2	1	4	112	0.00	30.283 
14:40	84.0	84.0	81.7	27	46.4	1	3	270	0.00	30.282 
14:45	84.0	84.0	81.8	28	47.4	1	5	68	0.00	30.280 
14:50	84.0	84.0	81.6	26	45.4	1	4	112	0.00	30.279 
14:55	84.0	84.0	81.8	28	47.4	2	5	112	0.00	30.279 
15:00	84.0	84.0	81.8	28	47.4	1	6	112	0.00	30.279 
15:05	84.1	84.1	81.8	27	46.5	1	3	90	0.00	30.277 
15:10	84.0	84.0	81.8	28	47.4	1	5	112	0.00	30.275 
15:15	84.0	84.0	81.7	27	46.4	1	2	112	0.00	30.275 
15:20	84.0	84.0	81.8	28	47.4	2	7	90	0.00	30.275 
15:25	84.0	84.0	81.7	27	46.4	1	3	135	0.00	30.275 
15:30	84.0	84.0	81.7	27	46.4	1	3	135	0.00	30.275 
15:35	83.8	83.8	81.7	28	47.2	1	2	135	0.00	30.273 
15:40	83.8	83.8	81.5	26	45.2	1	3	90	0.00	30.272 
15:45	83.8	83.8	81.6	27	46.2	1	3	90	0.00	30.270 
15:50	83.8	83.8	81.6	27	46.2	0	2	22	0.00	30.270 
15:55	83.6	83.6	81.4	27	46.1	1	4	22	0.00	30.269 
16:00	83.6	83.6	81.4	27	46.1	1	3	90	0.00	30.265 
16:05	83.6	83.6	81.5	28	47.0	1	3	112	0.00	30.267 
16:10	83.6	83.6	81.3	26	45.1	1	4	112	0.00	30.267 
16:15	83.6	83.6	81.4	27	46.1	1	4	90	0.00	30.266 
16:20	83.6	83.6	81.3	26	45.1	2	4	112	0.00	30.266 
16:25	83.6	83.6	81.4	27	46.1	0	2	180	0.00	30.267 
16:30	83.4	83.4	81.2	26	44.9	1	3	112	0.00	30.267 
16:35	83.2	83.2	81.1	27	45.7	0	2	112	0.00	30.268 
16:40	83.0	83.0	81.0	28	46.5	0	2	112	0.00	30.266 
16:45	82.8	82.8	80.8	27	45.4	1	5	68	0.00	30.264 
16:50	82.6	82.6	80.7	27	45.2	1	5	90	0.00	30.263 
16:55	82.4	82.4	80.6	28	46.0	1	4	112	0.00	30.265 
17:00	82.2	82.2	80.4	27	44.9	1	4	112	0.00	30.264 
17:05	82.0	82.0	80.3	27	44.7	1	3	112	0.00	30.264 
17:10	81.8	81.8	80.1	27	44.5	1	3	112	0.00	30.265 
17:15	81.6	81.6	80.0	27	44.4	0	1	135	0.00	30.265 
17:20	81.2	81.2	79.7	27	44.0	0	2	90	0.00	30.266 
17:25	80.9	80.9	79.6	28	44.7	0	1	112	0.00	30.265 
17:30	80.5	80.5	79.4	29	45.3	0	2	112	0.00	30.266 
17:35	80.1	80.1	79.2	30	45.8	0	1	112	0.00	30.268 
17:40	79.6	79.6	79.1	32	47.1	0	0	---	0.00	30.270 
17:45	79.0	79.0	78.8	33	47.4	0	0	---	0.00	30.270 
17:50	78.3	78.3	78.5	34	47.6	0	0	---	0.00	30.271 
17:55	77.7	77.7	78.3	35	47.8	0	0	---	0.00	30.273 
18:00	77.0	77.0	78.0	36	48.0	0	0	---	0.00	30.276 
18:05	76.3	76.3	77.8	37	48.1	0	1	112	0.00	30.279 
18:10	75.6	75.6	77.6	38	48.2	0	0	---	0.00	30.280 
18:15	74.9	74.9	74.9	40	48.9	0	0	---	0.00	30.283 
18:20	74.2	74.2	74.2	40	48.3	0	0	---	0.00	30.284 
18:25	73.5	73.5	73.5	41	48.3	0	0	---	0.00	30.285 
18:30	72.7	72.7	72.7	42	48.3	0	0	---	0.00	30.287 
18:35	72.0	72.0	72.0	43	48.3	0	0	---	0.00	30.287 
18:40	71.3	71.3	71.3	44	48.2	0	0	---	0.00	30.288 
18:45	70.6	70.6	70.6	45	48.2	0	0	---	0.00	30.290 
18:50	70.1	70.1	70.1	47	48.9	0	0	---	0.00	30.289 
18:55	69.4	69.4	69.4	48	48.8	0	0	---	0.00	30.289 
19:00	68.8	68.8	68.8	49	48.8	0	0	---	0.00	30.293 
19:05	68.1	68.1	68.1	49	48.2	0	0	---	0.00	30.292 
19:10	67.6	67.6	67.6	51	48.8	0	0	---	0.00	30.292 
19:15	67.1	67.1	67.1	51	48.4	0	0	---	0.00	30.292 
19:20	66.6	66.6	66.6	52	48.4	0	0	---	0.00	30.292 
19:25	66.1	66.1	66.1	53	48.5	0	0	---	0.00	30.294 
19:30	65.6	65.6	65.6	54	48.5	0	0	---	0.00	30.295 
19:35	65.2	65.2	65.2	55	48.6	0	0	---	0.00	30.293 
19:40	64.7	64.7	64.7	57	49.1	0	0	---	0.00	30.293 
19:45	64.3	64.3	64.3	57	48.7	0	0	---	0.00	30.296 
19:50	63.9	63.9	63.9	58	48.8	0	0	---	0.00	30.299 
19:55	63.4	63.4	63.4	59	48.8	0	0	---	0.00	30.302 
20:00	63.1	63.1	63.1	59	48.5	0	0	---	0.00	30.303 
20:05	62.6	62.6	62.6	61	49.0	0	0	---	0.00	30.300 
20:10	62.3	62.3	62.3	61	48.7	0	0	---	0.00	30.302 
20:15	62.0	62.0	62.0	62	48.8	0	0	---	0.00	30.303 
20:20	61.6	61.6	61.6	63	48.9	0	0	---	0.00	30.303 
20:25	61.5	61.5	61.5	63	48.8	0	0	---	0.00	30.303 
20:30	61.3	61.3	61.3	63	48.6	0	0	---	0.00	30.303 
20:35	61.2	61.2	61.2	63	48.5	0	0	---	0.00	30.305 
20:40	61.0	61.0	61.0	62	47.9	0	0	---	0.00	30.305 
20:45	60.9	60.9	60.9	62	47.8	0	0	---	0.00	30.305 
20:50	61.0	61.0	61.0	60	47.0	0	0	---	0.00	30.305 
20:55	61.3	61.3	61.3	57	45.9	0	0	---	0.00	30.305 
21:00	62.1	62.1	62.1	54	45.3	0	0	---	0.00	30.306 
21:05	62.7	62.7	62.7	54	45.8	0	0	---	0.00	30.297 
21:10	63.1	63.1	63.1	54	46.2	0	0	---	0.00	30.298 
21:15	63.1	63.1	63.1	53	45.7	0	0	---	0.00	30.298 
21:20	62.9	62.9	62.9	52	45.0	0	0	---	0.00	30.297 
21:25	62.7	62.7	62.7	52	44.8	0	0	---	0.00	30.299 
21:30	62.6	62.6	62.6	52	44.7	0	0	---	0.00	30.303 
21:35	62.3	62.3	62.3	52	44.4	0	0	---	0.00	30.305 
21:40	62.0	62.0	62.0	53	44.7	0	0	---	0.00	30.307 
21:45	61.6	61.6	61.6	53	44.3	0	0	---	0.00	30.308 
21:50	61.2	61.2	61.2	54	44.4	0	0	---	0.00	30.309 
21:55	60.7	60.7	60.7	54	44.0	0	0	---	0.00	30.311 
22:00	60.4	60.4	60.4	55	44.2	0	0	---	0.00	30.314 
22:05	59.9	59.9	59.9	56	44.2	0	0	---	0.00	30.309 
22:10	59.5	59.5	59.5	58	44.7	0	0	---	0.00	30.309 
22:15	59.0	59.0	59.0	58	44.2	0	0	---	0.00	30.309 
22:20	58.6	58.6	58.6	59	44.3	0	0	---	0.00	30.310 
22:25	58.1	58.1	58.1	61	44.7	0	0	---	0.00	30.311 
22:30	57.8	57.8	57.8	63	45.3	0	0	---	0.00	30.311 
22:35	57.5	57.5	57.5	63	45.0	0	0	---	0.00	30.310 
22:40	57.0	57.0	57.0	64	44.9	0	0	---	0.00	30.310 
22:45	56.7	56.7	56.7	64	44.7	0	0	---	0.00	30.310 
22:50	56.5	56.5	56.5	64	44.5	0	0	---	0.00	30.309 
22:55	56.0	56.0	56.0	65	44.4	0	0	---	0.00	30.312 
23:00	55.7	55.7	55.7	65	44.1	0	0	---	0.00	30.312 
23:05	55.6	55.6	55.6	66	44.4	0	0	---	0.00	30.306 
23:10	55.3	55.3	55.3	68	44.9	0	0	---	0.00	30.307 
23:15	55.0	55.0	55.0	68	44.6	0	0	---	0.00	30.306 
23:20	54.8	54.8	54.8	68	44.4	0	0	---	0.00	30.304 
23:25	54.5	54.5	54.5	70	44.9	0	0	---	0.00	30.301 
23:30	54.4	54.4	54.4	69	44.4	0	0	---	0.00	30.299 
23:35	54.4	54.4	54.4	70	44.8	0	0	---	0.00	30.296 
23:40	54.4	54.4	54.4	70	44.8	0	0	---	0.00	30.293 
23:45	54.4	54.4	54.4	70	44.8	0	0	---	0.00	30.293 
23:50	54.4	54.4	54.4	70	44.8	0	0	---	0.00	30.291 
23:55	54.5	54.5	54.5	68	44.2	0	0	---	0.00	30.291 

CoCoRaHS
IN-AL-39
A2 Web Hosting
Creative Commons License
GoDaddy
Look for:

loaded 2017-10-18 07:18:13 • last modified 2010-11-18 10:43:29
Privacy PolicyDisclaimer
• wx.awcolley.com is powered by PmWiki v.2002016 •
• all content (unless otherwise noted) © 2017 A W Colley